sensor_id;sensor_type;location;lat;lon;timestamp;pressure;altitude;pressure_sealevel;temperature;humidity
62072;BME280;48031;48.542;13.232;2023-03-01T00:02:05;98020.00;;;6.43;44.60
62072;BME280;48031;48.542;13.232;2023-03-01T00:06:08;98029.41;;;6.91;44.23
62072;BME280;48031;48.542;13.232;2023-03-01T00:10:10;98034.56;;;6.15;45.59
62072;BME280;48031;48.542;13.232;2023-03-01T00:14:13;98026.41;;;6.61;43.52
62072;BME280;48031;48.542;13.232;2023-03-01T00:18:15;98023.34;;;6.32;44.75
62072;BME280;48031;48.542;13.232;2023-03-01T00:22:16;98025.00;;;6.39;44.59
62072;BME280;48031;48.542;13.232;2023-03-01T00:26:19;98021.28;;;6.27;44.94
62072;BME280;48031;48.542;13.232;2023-03-01T00:30:22;98014.78;;;5.42;46.83
62072;BME280;48031;48.542;13.232;2023-03-01T00:34:23;98006.19;;;6.13;45.46
62072;BME280;48031;48.542;13.232;2023-03-01T00:38:25;98005.53;;;5.71;46.36
62072;BME280;48031;48.542;13.232;2023-03-01T00:42:27;97993.72;;;5.72;46.75
62072;BME280;48031;48.542;13.232;2023-03-01T00:46:29;97985.25;;;6.02;45.65
62072;BME280;48031;48.542;13.232;2023-03-01T00:50:34;97979.41;;;5.65;46.56
62072;BME280;48031;48.542;13.232;2023-03-01T00:54:36;97985.19;;;5.42;46.75
62072;BME280;48031;48.542;13.232;2023-03-01T00:58:38;97976.72;;;5.59;45.50
62072;BME280;48031;48.542;13.232;2023-03-01T01:02:40;97982.31;;;5.97;45.03
62072;BME280;48031;48.542;13.232;2023-03-01T01:06:44;97979.44;;;6.05;45.28
62072;BME280;48031;48.542;13.232;2023-03-01T01:10:47;97977.13;;;6.15;44.33
62072;BME280;48031;48.542;13.232;2023-03-01T01:14:48;97969.88;;;6.22;44.69
62072;BME280;48031;48.542;13.232;2023-03-01T01:18:50;97964.94;;;5.79;45.84
62072;BME280;48031;48.542;13.232;2023-03-01T01:22:52;97955.56;;;5.69;45.94
62072;BME280;48031;48.542;13.232;2023-03-01T01:26:54;97956.00;;;6.05;43.97
62072;BME280;48031;48.542;13.232;2023-03-01T01:30:55;97946.28;;;6.04;44.66
62072;BME280;48031;48.542;13.232;2023-03-01T01:34:57;97955.41;;;5.90;45.04
62072;BME280;48031;48.542;13.232;2023-03-01T01:38:59;97956.84;;;5.66;46.53
62072;BME280;48031;48.542;13.232;2023-03-01T01:43:01;97942.75;;;5.64;45.77
62072;BME280;48031;48.542;13.232;2023-03-01T01:47:05;97948.38;;;5.89;46.11
62072;BME280;48031;48.542;13.232;2023-03-01T01:51:19;97946.28;;;5.84;45.27
62072;BME280;48031;48.542;13.232;2023-03-01T01:55:23;97942.53;;;5.33;46.71
62072;BME280;48031;48.542;13.232;2023-03-01T01:59:28;97924.69;;;5.19;46.47
62072;BME280;48031;48.542;13.232;2023-03-01T02:03:33;97924.31;;;5.35;46.96
62072;BME280;48031;48.542;13.232;2023-03-01T02:07:39;97924.72;;;5.32;46.78
62072;BME280;48031;48.542;13.232;2023-03-01T02:11:43;97920.78;;;5.80;45.37
62072;BME280;48031;48.542;13.232;2023-03-01T02:15:45;97921.41;;;5.30;46.38
62072;BME280;48031;48.542;13.232;2023-03-01T02:19:52;97917.66;;;5.24;46.52
62072;BME280;48031;48.542;13.232;2023-03-01T02:23:59;97921.41;;;5.43;46.37
62072;BME280;48031;48.542;13.232;2023-03-01T02:32:18;97925.56;;;5.32;47.27
62072;BME280;48031;48.542;13.232;2023-03-01T02:36:28;97920.78;;;5.15;47.22
62072;BME280;48031;48.542;13.232;2023-03-01T02:40:34;97919.75;;;5.55;46.65
62072;BME280;48031;48.542;13.232;2023-03-01T02:44:36;97926.59;;;5.18;46.17
62072;BME280;48031;48.542;13.232;2023-03-01T02:48:43;97915.00;;;5.37;47.92
62072;BME280;48031;48.542;13.232;2023-03-01T02:52:53;97912.53;;;5.29;47.52
62072;BME280;48031;48.542;13.232;2023-03-01T02:56:59;97915.72;;;4.72;48.21
62072;BME280;48031;48.542;13.232;2023-03-01T03:01:03;97905.78;;;4.79;47.33
62072;BME280;48031;48.542;13.232;2023-03-01T03:05:10;97913.03;;;4.85;48.32
62072;BME280;48031;48.542;13.232;2023-03-01T03:09:14;97905.25;;;5.17;46.86
62072;BME280;48031;48.542;13.232;2023-03-01T03:13:17;97903.41;;;5.24;45.79
62072;BME280;48031;48.542;13.232;2023-03-01T03:17:20;97901.53;;;5.11;46.46
62072;BME280;48031;48.542;13.232;2023-03-01T03:21:22;97900.66;;;4.84;47.08
62072;BME280;48031;48.542;13.232;2023-03-01T03:25:25;97893.81;;;4.82;48.14
62072;BME280;48031;48.542;13.232;2023-03-01T03:29:27;97900.50;;;5.12;45.85
62072;BME280;48031;48.542;13.232;2023-03-01T03:33:32;97880.44;;;5.28;47.73
62072;BME280;48031;48.542;13.232;2023-03-01T03:38:06;97883.72;;;5.56;45.89
62072;BME280;48031;48.542;13.232;2023-03-01T03:42:10;97885.53;;;4.77;46.42
62072;BME280;48031;48.542;13.232;2023-03-01T03:46:12;97890.38;;;4.34;48.28
62072;BME280;48031;48.542;13.232;2023-03-01T03:50:16;97885.97;;;4.93;47.34
62072;BME280;48031;48.542;13.232;2023-03-01T03:54:18;97894.22;;;4.25;48.32
62072;BME280;48031;48.542;13.232;2023-03-01T03:58:22;97881.59;;;4.86;47.31
62072;BME280;48031;48.542;13.232;2023-03-01T04:02:24;97882.34;;;4.53;47.67
62072;BME280;48031;48.542;13.232;2023-03-01T04:06:26;97877.63;;;4.69;46.97
62072;BME280;48031;48.542;13.232;2023-03-01T04:10:36;97878.34;;;5.17;46.63
62072;BME280;48031;48.542;13.232;2023-03-01T04:14:38;97883.47;;;4.72;47.36
62072;BME280;48031;48.542;13.232;2023-03-01T04:18:41;97875.59;;;4.90;46.47
62072;BME280;48031;48.542;13.232;2023-03-01T04:22:44;97864.88;;;5.10;46.29
62072;BME280;48031;48.542;13.232;2023-03-01T04:26:49;97864.41;;;4.67;46.75
62072;BME280;48031;48.542;13.232;2023-03-01T04:30:53;97866.94;;;5.01;46.23
62072;BME280;48031;48.542;13.232;2023-03-01T04:34:55;97872.97;;;4.30;48.44
62072;BME280;48031;48.542;13.232;2023-03-01T04:38:57;97871.44;;;4.62;46.82
62072;BME280;48031;48.542;13.232;2023-03-01T04:42:59;97863.75;;;4.58;46.97
62072;BME280;48031;48.542;13.232;2023-03-01T04:47:01;97867.47;;;4.51;47.27
62072;BME280;48031;48.542;13.232;2023-03-01T04:51:04;97866.31;;;4.93;45.81
62072;BME280;48031;48.542;13.232;2023-03-01T04:55:07;97870.16;;;4.51;46.36
62072;BME280;48031;48.542;13.232;2023-03-01T04:59:10;97867.69;;;4.63;46.55
62072;BME280;48031;48.542;13.232;2023-03-01T05:03:14;97859.41;;;4.51;46.90
62072;BME280;48031;48.542;13.232;2023-03-01T05:07:19;97866.53;;;4.24;47.35
62072;BME280;48031;48.542;13.232;2023-03-01T05:11:21;97862.78;;;4.12;47.59
62072;BME280;48031;48.542;13.232;2023-03-01T05:15:24;97868.53;;;4.70;46.49
62072;BME280;48031;48.542;13.232;2023-03-01T05:19:30;97848.75;;;4.16;47.99
62072;BME280;48031;48.542;13.232;2023-03-01T05:23:33;97859.44;;;4.03;47.69
62072;BME280;48031;48.542;13.232;2023-03-01T05:27:35;97853.47;;;4.14;46.97
62072;BME280;48031;48.542;13.232;2023-03-01T05:31:38;97853.50;;;4.21;47.57
62072;BME280;48031;48.542;13.232;2023-03-01T05:35:44;97856.13;;;4.62;47.53
62072;BME280;48031;48.542;13.232;2023-03-01T05:39:46;97855.09;;;3.68;48.83
62072;BME280;48031;48.542;13.232;2023-03-01T05:43:51;97856.00;;;4.23;47.52
62072;BME280;48031;48.542;13.232;2023-03-01T05:47:54;97847.47;;;4.73;46.27
62072;BME280;48031;48.542;13.232;2023-03-01T05:51:56;97850.72;;;4.01;48.11
62072;BME280;48031;48.542;13.232;2023-03-01T05:55:58;97852.59;;;4.68;46.52
62072;BME280;48031;48.542;13.232;2023-03-01T06:00:01;97848.69;;;4.64;46.32
62072;BME280;48031;48.542;13.232;2023-03-01T06:04:12;97845.00;;;4.91;45.35
62072;BME280;48031;48.542;13.232;2023-03-01T06:08:15;97846.03;;;4.84;45.21
62072;BME280;48031;48.542;13.232;2023-03-01T06:12:17;97839.00;;;5.02;44.91
62072;BME280;48031;48.542;13.232;2023-03-01T06:16:19;97841.72;;;5.09;44.30
62072;BME280;48031;48.542;13.232;2023-03-01T06:20:22;97847.28;;;4.88;45.96
62072;BME280;48031;48.542;13.232;2023-03-01T06:24:25;97849.97;;;4.94;45.04
62072;BME280;48031;48.542;13.232;2023-03-01T06:28:27;97848.53;;;4.92;44.74
62072;BME280;48031;48.542;13.232;2023-03-01T06:32:29;97850.16;;;4.80;45.69
62072;BME280;48031;48.542;13.232;2023-03-01T06:36:32;97848.53;;;4.98;45.82
62072;BME280;48031;48.542;13.232;2023-03-01T06:40:35;97848.75;;;5.17;45.12
62072;BME280;48031;48.542;13.232;2023-03-01T06:44:37;97848.72;;;4.97;46.32
62072;BME280;48031;48.542;13.232;2023-03-01T06:48:39;97848.47;;;4.59;46.21
62072;BME280;48031;48.542;13.232;2023-03-01T06:52:41;97850.19;;;5.26;46.14
62072;BME280;48031;48.542;13.232;2023-03-01T06:56:49;97858.88;;;5.61;44.62
62072;BME280;48031;48.542;13.232;2023-03-01T07:00:51;97850.19;;;5.39;44.71
62072;BME280;48031;48.542;13.232;2023-03-01T07:04:53;97853.88;;;5.64;44.37
62072;BME280;48031;48.542;13.232;2023-03-01T07:08:56;97852.06;;;5.06;45.86
62072;BME280;48031;48.542;13.232;2023-03-01T07:12:58;97851.44;;;5.43;45.48
62072;BME280;48031;48.542;13.232;2023-03-01T07:17:00;97848.50;;;5.64;45.00
62072;BME280;48031;48.542;13.232;2023-03-01T07:21:12;97840.16;;;5.85;46.30
62072;BME280;48031;48.542;13.232;2023-03-01T07:25:15;97836.50;;;5.47;46.09
62072;BME280;48031;48.542;13.232;2023-03-01T07:29:17;97837.09;;;5.69;45.50
62072;BME280;48031;48.542;13.232;2023-03-01T07:33:19;97839.00;;;5.42;45.03
62072;BME280;48031;48.542;13.232;2023-03-01T07:37:21;97827.91;;;6.03;44.05
62072;BME280;48031;48.542;13.232;2023-03-01T07:41:24;97826.03;;;6.54;43.12
62072;BME280;48031;48.542;13.232;2023-03-01T07:45:27;97828.16;;;6.84;43.16
62072;BME280;48031;48.542;13.232;2023-03-01T07:49:29;97819.94;;;6.65;42.24
62072;BME280;48031;48.542;13.232;2023-03-01T07:53:32;97819.31;;;6.32;42.49
62072;BME280;48031;48.542;13.232;2023-03-01T07:57:36;97809.72;;;6.36;42.10
62072;BME280;48031;48.542;13.232;2023-03-01T08:01:38;97812.69;;;6.66;41.83
62072;BME280;48031;48.542;13.232;2023-03-01T08:05:40;97814.03;;;6.50;43.41
62072;BME280;48031;48.542;13.232;2023-03-01T08:09:42;97816.09;;;7.11;40.99
62072;BME280;48031;48.542;13.232;2023-03-01T08:13:44;97822.44;;;7.23;40.74
62072;BME280;48031;48.542;13.232;2023-03-01T08:17:52;97817.88;;;7.24;42.08
62072;BME280;48031;48.542;13.232;2023-03-01T08:21:54;97804.03;;;7.38;41.19
62072;BME280;48031;48.542;13.232;2023-03-01T08:26:12;97798.16;;;8.69;40.02
62072;BME280;48031;48.542;13.232;2023-03-01T08:30:15;97796.78;;;7.57;41.88
62072;BME280;48031;48.542;13.232;2023-03-01T08:34:18;97789.69;;;8.36;39.79
62072;BME280;48031;48.542;13.232;2023-03-01T08:38:22;97793.56;;;8.21;40.04
62072;BME280;48031;48.542;13.232;2023-03-01T08:42:24;97795.28;;;8.52;39.27
62072;BME280;48031;48.542;13.232;2023-03-01T08:46:27;97792.72;;;9.10;39.90
62072;BME280;48031;48.542;13.232;2023-03-01T08:50:30;97784.38;;;9.12;39.86
62072;BME280;48031;48.542;13.232;2023-03-01T08:54:32;97776.00;;;9.72;36.71
62072;BME280;48031;48.542;13.232;2023-03-01T08:58:35;97779.44;;;9.67;38.03
62072;BME280;48031;48.542;13.232;2023-03-01T09:02:38;97773.41;;;9.88;38.12
62072;BME280;48031;48.542;13.232;2023-03-01T09:06:40;97776.63;;;10.82;36.07
62072;BME280;48031;48.542;13.232;2023-03-01T09:10:43;97766.66;;;10.71;36.37
62072;BME280;48031;48.542;13.232;2023-03-01T09:14:45;97766.22;;;11.41;33.80
62072;BME280;48031;48.542;13.232;2023-03-01T09:18:52;97745.38;;;12.77;33.63
62072;BME280;48031;48.542;13.232;2023-03-01T09:22:54;97747.00;;;11.81;34.82
62072;BME280;48031;48.542;13.232;2023-03-01T09:26:56;97747.56;;;12.26;33.65
62072;BME280;48031;48.542;13.232;2023-03-01T09:31:00;97736.03;;;12.68;34.71
62072;BME280;48031;48.542;13.232;2023-03-01T09:35:02;97737.69;;;13.27;32.51
62072;BME280;48031;48.542;13.232;2023-03-01T09:39:07;97726.13;;;12.30;34.25
62072;BME280;48031;48.542;13.232;2023-03-01T09:43:26;97729.63;;;13.11;32.21
62072;BME280;48031;48.542;13.232;2023-03-01T09:47:33;97709.25;;;14.02;32.61
62072;BME280;48031;48.542;13.232;2023-03-01T09:51:39;97707.81;;;14.57;31.91
62072;BME280;48031;48.542;13.232;2023-03-01T10:01:40;97695.66;;;14.18;31.63
62072;BME280;48031;48.542;13.232;2023-03-01T10:09:59;97699.59;;;14.57;31.21
62072;BME280;48031;48.542;13.232;2023-03-01T10:14:15;97699.06;;;15.51;29.96
62072;BME280;48031;48.542;13.232;2023-03-01T10:18:22;97684.53;;;16.40;29.99
62072;BME280;48031;48.542;13.232;2023-03-01T10:22:29;97674.84;;;16.58;28.84
62072;BME280;48031;48.542;13.232;2023-03-01T10:26:41;97674.19;;;17.44;28.70
62072;BME280;48031;48.542;13.232;2023-03-01T10:30:46;97671.69;;;17.48;27.76
62072;BME280;48031;48.542;13.232;2023-03-01T10:34:48;97667.78;;;17.54;26.69
62072;BME280;48031;48.542;13.232;2023-03-01T10:38:55;97656.44;;;18.32;27.13
62072;BME280;48031;48.542;13.232;2023-03-01T10:43:01;97656.44;;;18.32;26.35
62072;BME280;48031;48.542;13.232;2023-03-01T10:47:04;97649.88;;;18.09;25.97
62072;BME280;48031;48.542;13.232;2023-03-01T10:51:07;97632.16;;;18.39;26.58
62072;BME280;48031;48.542;13.232;2023-03-01T10:55:39;97624.97;;;19.59;24.40
62072;BME280;48031;48.542;13.232;2023-03-01T10:59:41;97627.41;;;19.46;25.18
62072;BME280;48031;48.542;13.232;2023-03-01T11:03:43;97623.31;;;19.44;24.77
62072;BME280;48031;48.542;13.232;2023-03-01T11:11:55;97601.44;;;22.76;23.68
62072;BME280;48031;48.542;13.232;2023-03-01T11:16:03;97592.31;;;22.50;21.70
62072;BME280;48031;48.542;13.232;2023-03-01T11:24:17;97572.03;;;23.36;21.60
62072;BME280;48031;48.542;13.232;2023-03-01T11:28:20;97562.97;;;23.73;20.92
62072;BME280;48031;48.542;13.232;2023-03-01T11:32:26;97552.91;;;24.19;20.41
62072;BME280;48031;48.542;13.232;2023-03-01T11:36:35;97550.34;;;24.97;19.40
62072;BME280;48031;48.542;13.232;2023-03-01T11:40:57;97546.91;;;27.10;17.06
62072;BME280;48031;48.542;13.232;2023-03-01T11:45:07;97538.91;;;26.80;17.92
62072;BME280;48031;48.542;13.232;2023-03-01T11:53:54;97512.84;;;28.80;17.00
62072;BME280;48031;48.542;13.232;2023-03-01T12:02:40;97511.75;;;31.08;13.66
62072;BME280;48031;48.542;13.232;2023-03-01T12:06:59;97502.41;;;32.29;13.40
62072;BME280;48031;48.542;13.232;2023-03-01T12:20:34;97484.84;;;36.33;10.91
62072;BME280;48031;48.542;13.232;2023-03-01T12:25:14;97496.50;;;31.90;12.67
62072;BME280;48031;48.542;13.232;2023-03-01T12:30:00;97488.16;;;31.53;12.98
62072;BME280;48031;48.542;13.232;2023-03-01T12:38:08;97476.28;;;35.43;10.78
62072;BME280;48031;48.542;13.232;2023-03-01T12:51:10;97464.47;;;34.93;10.48
62072;BME280;48031;48.542;13.232;2023-03-01T12:55:28;97472.00;;;35.21;11.34
62072;BME280;48031;48.542;13.232;2023-03-01T12:59:36;97466.94;;;35.54;10.32
62072;BME280;48031;48.542;13.232;2023-03-01T13:08:34;97434.84;;;37.47;9.10
62072;BME280;48031;48.542;13.232;2023-03-01T13:12:50;97443.84;;;36.10;10.39
62072;BME280;48031;48.542;13.232;2023-03-01T13:16:53;97434.00;;;38.01;9.45
62072;BME280;48031;48.542;13.232;2023-03-01T13:20:55;97434.44;;;37.96;9.62
62072;BME280;48031;48.542;13.232;2023-03-01T13:25:12;97429.91;;;36.34;10.36
62072;BME280;48031;48.542;13.232;2023-03-01T13:29:26;97438.88;;;35.29;11.63
62072;BME280;48031;48.542;13.232;2023-03-01T13:37:33;97455.16;;;36.10;10.71
62072;BME280;48031;48.542;13.232;2023-03-01T13:51:05;97428.25;;;37.00;10.52
62072;BME280;48031;48.542;13.232;2023-03-01T13:59:20;97434.31;;;31.40;13.58
62072;BME280;48031;48.542;13.232;2023-03-01T14:03:23;97425.72;;;33.54;11.48
62072;BME280;48031;48.542;13.232;2023-03-01T14:07:26;97423.31;;;36.44;10.50
62072;BME280;48031;48.542;13.232;2023-03-01T14:15:56;97418.97;;;32.40;12.26
62072;BME280;48031;48.542;13.232;2023-03-01T14:20:02;97428.66;;;31.81;12.73
62072;BME280;48031;48.542;13.232;2023-03-01T14:24:06;97417.75;;;30.87;13.17
62072;BME280;48031;48.542;13.232;2023-03-01T14:28:23;97406.34;;;28.66;15.19
62072;BME280;48031;48.542;13.232;2023-03-01T14:32:30;97401.72;;;30.21;14.67
62072;BME280;48031;48.542;13.232;2023-03-01T14:36:33;97399.38;;;30.93;12.92
62072;BME280;48031;48.542;13.232;2023-03-01T14:40:36;97391.69;;;31.20;13.66
62072;BME280;48031;48.542;13.232;2023-03-01T14:44:42;97387.91;;;29.04;15.11
62072;BME280;48031;48.542;13.232;2023-03-01T14:48:44;97393.72;;;29.63;15.42
62072;BME280;48031;48.542;13.232;2023-03-01T14:52:47;97385.94;;;28.43;15.92
62072;BME280;48031;48.542;13.232;2023-03-01T14:56:51;97395.09;;;27.86;16.34
62072;BME280;48031;48.542;13.232;2023-03-01T15:00:55;97373.69;;;29.35;15.29
62072;BME280;48031;48.542;13.232;2023-03-01T15:05:00;97376.84;;;26.19;16.80
62072;BME280;48031;48.542;13.232;2023-03-01T15:09:04;97382.41;;;26.91;17.17
62072;BME280;48031;48.542;13.232;2023-03-01T15:13:19;97371.81;;;25.57;18.83
62072;BME280;48031;48.542;13.232;2023-03-01T15:17:32;97384.41;;;25.66;18.40
62072;BME280;48031;48.542;13.232;2023-03-01T15:21:37;97385.63;;;26.33;17.16
62072;BME280;48031;48.542;13.232;2023-03-01T15:25:44;97388.97;;;24.65;19.77
62072;BME280;48031;48.542;13.232;2023-03-01T15:29:55;97391.81;;;20.88;23.68
62072;BME280;48031;48.542;13.232;2023-03-01T15:34:09;97397.56;;;19.44;26.51
62072;BME280;48031;48.542;13.232;2023-03-01T15:38:49;97396.88;;;19.38;27.06
62072;BME280;48031;48.542;13.232;2023-03-01T15:42:51;97389.66;;;19.01;26.65
62072;BME280;48031;48.542;13.232;2023-03-01T15:46:53;97400.00;;;21.92;23.26
62072;BME280;48031;48.542;13.232;2023-03-01T15:50:59;97392.31;;;22.41;22.14
62072;BME280;48031;48.542;13.232;2023-03-01T15:55:03;97394.84;;;22.63;22.07
62072;BME280;48031;48.542;13.232;2023-03-01T15:59:09;97396.56;;;21.87;22.86
62072;BME280;48031;48.542;13.232;2023-03-01T16:03:13;97402.53;;;21.29;22.96
62072;BME280;48031;48.542;13.232;2023-03-01T16:07:15;97399.09;;;20.84;24.76
62072;BME280;48031;48.542;13.232;2023-03-01T16:11:18;97399.81;;;19.42;26.24
62072;BME280;48031;48.542;13.232;2023-03-01T16:15:27;97406.44;;;18.73;27.45
62072;BME280;48031;48.542;13.232;2023-03-01T16:19:33;97417.09;;;18.47;27.55
62072;BME280;48031;48.542;13.232;2023-03-01T16:23:35;97415.53;;;17.76;28.27
62072;BME280;48031;48.542;13.232;2023-03-01T16:27:37;97415.00;;;17.13;29.27
62072;BME280;48031;48.542;13.232;2023-03-01T16:31:39;97411.28;;;17.03;29.41
62072;BME280;48031;48.542;13.232;2023-03-01T16:35:41;97419.41;;;15.69;31.83
62072;BME280;48031;48.542;13.232;2023-03-01T16:39:44;97414.72;;;15.26;33.17
62072;BME280;48031;48.542;13.232;2023-03-01T16:48:34;97426.72;;;14.35;35.21
62072;BME280;48031;48.542;13.232;2023-03-01T16:52:36;97437.38;;;13.71;35.92
62072;BME280;48031;48.542;13.232;2023-03-01T16:56:38;97440.28;;;13.19;37.01
62072;BME280;48031;48.542;13.232;2023-03-01T17:00:41;97448.09;;;13.10;37.10
62072;BME280;48031;48.542;13.232;2023-03-01T17:04:42;97449.28;;;13.19;36.82
62072;BME280;48031;48.542;13.232;2023-03-01T17:08:44;97454.91;;;13.03;37.01
62072;BME280;48031;48.542;13.232;2023-03-01T17:12:48;97456.50;;;12.99;37.63
62072;BME280;48031;48.542;13.232;2023-03-01T17:16:50;97459.16;;;12.36;38.19
62072;BME280;48031;48.542;13.232;2023-03-01T17:20:54;97467.16;;;12.16;39.00
62072;BME280;48031;48.542;13.232;2023-03-01T17:24:56;97482.38;;;11.80;39.39
62072;BME280;48031;48.542;13.232;2023-03-01T17:28:57;97489.03;;;11.67;39.64
62072;BME280;48031;48.542;13.232;2023-03-01T17:38:49;97499.53;;;11.59;40.29
62072;BME280;48031;48.542;13.232;2023-03-01T17:42:52;97493.56;;;11.35;41.20
62072;BME280;48031;48.542;13.232;2023-03-01T17:46:54;97505.06;;;11.20;41.45
62072;BME280;48031;48.542;13.232;2023-03-01T17:50:56;97508.88;;;11.41;40.21
62072;BME280;48031;48.542;13.232;2023-03-01T17:54:58;97516.91;;;10.71;41.65
62072;BME280;48031;48.542;13.232;2023-03-01T17:59:00;97508.41;;;10.84;41.15
62072;BME280;48031;48.542;13.232;2023-03-01T18:03:02;97510.19;;;10.95;41.68
62072;BME280;48031;48.542;13.232;2023-03-01T18:07:04;97518.75;;;10.32;42.97
62072;BME280;48031;48.542;13.232;2023-03-01T18:11:06;97527.63;;;10.11;42.82
62072;BME280;48031;48.542;13.232;2023-03-01T18:15:09;97524.53;;;10.19;43.36
62072;BME280;48031;48.542;13.232;2023-03-01T18:19:11;97529.56;;;9.98;43.71
62072;BME280;48031;48.542;13.232;2023-03-01T18:23:13;97530.31;;;9.94;43.18
62072;BME280;48031;48.542;13.232;2023-03-01T18:27:15;97512.97;;;9.22;44.66
62072;BME280;48031;48.542;13.232;2023-03-01T18:31:18;97519.81;;;9.52;44.85
62072;BME280;48031;48.542;13.232;2023-03-01T18:35:22;97538.09;;;9.74;43.92
62072;BME280;48031;48.542;13.232;2023-03-01T18:39:24;97529.34;;;9.55;44.11
62072;BME280;48031;48.542;13.232;2023-03-01T18:43:26;97533.53;;;9.91;43.19
62072;BME280;48031;48.542;13.232;2023-03-01T18:47:29;97535.53;;;9.39;44.91
62072;BME280;48031;48.542;13.232;2023-03-01T18:51:31;97538.31;;;9.44;45.28
62072;BME280;48031;48.542;13.232;2023-03-01T18:55:37;97540.13;;;9.67;45.14
62072;BME280;48031;48.542;13.232;2023-03-01T18:59:39;97537.28;;;9.45;44.35
62072;BME280;48031;48.542;13.232;2023-03-01T19:03:41;97535.38;;;9.45;44.53
62072;BME280;48031;48.542;13.232;2023-03-01T19:07:43;97537.94;;;9.24;44.92
62072;BME280;48031;48.542;13.232;2023-03-01T19:11:44;97533.63;;;9.39;45.24
62072;BME280;48031;48.542;13.232;2023-03-01T19:15:46;97535.03;;;9.13;45.20
62072;BME280;48031;48.542;13.232;2023-03-01T19:19:48;97529.19;;;9.62;44.38
62072;BME280;48031;48.542;13.232;2023-03-01T19:23:52;97526.25;;;9.35;44.76
62072;BME280;48031;48.542;13.232;2023-03-01T19:27:54;97524.75;;;9.15;45.33
62072;BME280;48031;48.542;13.232;2023-03-01T19:31:55;97517.63;;;8.86;45.52
62072;BME280;48031;48.542;13.232;2023-03-01T19:35:58;97521.28;;;9.32;45.23
62072;BME280;48031;48.542;13.232;2023-03-01T19:40:00;97518.19;;;9.11;45.54
62072;BME280;48031;48.542;13.232;2023-03-01T19:44:02;97525.78;;;9.83;43.45
62072;BME280;48031;48.542;13.232;2023-03-01T19:48:06;97520.09;;;9.68;43.83
62072;BME280;48031;48.542;13.232;2023-03-01T19:52:08;97520.84;;;8.71;45.97
62072;BME280;48031;48.542;13.232;2023-03-01T19:56:09;97519.56;;;9.14;44.93
62072;BME280;48031;48.542;13.232;2023-03-01T20:00:12;97516.06;;;9.13;45.42
62072;BME280;48031;48.542;13.232;2023-03-01T20:04:15;97524.28;;;8.55;46.32
62072;BME280;48031;48.542;13.232;2023-03-01T20:08:16;97514.56;;;9.06;45.00
62072;BME280;48031;48.542;13.232;2023-03-01T20:12:18;97524.59;;;8.70;46.39
62072;BME280;48031;48.542;13.232;2023-03-01T20:16:20;97517.19;;;8.77;46.27
62072;BME280;48031;48.542;13.232;2023-03-01T20:20:23;97517.50;;;8.93;45.76
62072;BME280;48031;48.542;13.232;2023-03-01T20:24:25;97521.34;;;8.57;46.55
62072;BME280;48031;48.542;13.232;2023-03-01T20:28:27;97528.25;;;8.76;46.41
62072;BME280;48031;48.542;13.232;2023-03-01T20:32:30;97522.22;;;8.97;46.17
62072;BME280;48031;48.542;13.232;2023-03-01T20:36:32;97526.25;;;8.83;45.81
62072;BME280;48031;48.542;13.232;2023-03-01T20:40:36;97532.00;;;8.75;46.90
62072;BME280;48031;48.542;13.232;2023-03-01T20:44:38;97531.66;;;8.95;45.75
62072;BME280;48031;48.542;13.232;2023-03-01T20:48:44;97535.53;;;8.64;46.48
62072;BME280;48031;48.542;13.232;2023-03-01T20:52:46;97536.38;;;8.53;46.93
62072;BME280;48031;48.542;13.232;2023-03-01T20:56:48;97528.75;;;8.50;46.89
62072;BME280;48031;48.542;13.232;2023-03-01T21:00:50;97537.47;;;8.63;45.93
62072;BME280;48031;48.542;13.232;2023-03-01T21:04:52;97540.31;;;9.08;45.16
62072;BME280;48031;48.542;13.232;2023-03-01T21:08:55;97524.97;;;8.62;46.39
62072;BME280;48031;48.542;13.232;2023-03-01T21:12:57;97527.91;;;8.49;47.29
62072;BME280;48031;48.542;13.232;2023-03-01T21:16:58;97526.75;;;8.57;46.75
62072;BME280;48031;48.542;13.232;2023-03-01T21:21:03;97523.31;;;8.85;46.95
62072;BME280;48031;48.542;13.232;2023-03-01T21:25:05;97522.16;;;8.57;46.72
62072;BME280;48031;48.542;13.232;2023-03-01T21:29:07;97502.97;;;8.59;46.30
62072;BME280;48031;48.542;13.232;2023-03-01T21:33:10;97501.09;;;8.13;48.32
62072;BME280;48031;48.542;13.232;2023-03-01T21:37:12;97498.63;;;8.23;48.20
62072;BME280;48031;48.542;13.232;2023-03-01T21:45:17;97484.06;;;8.36;47.66
62072;BME280;48031;48.542;13.232;2023-03-01T21:49:20;97486.28;;;8.27;48.16
62072;BME280;48031;48.542;13.232;2023-03-01T21:53:22;97483.69;;;8.20;47.95
62072;BME280;48031;48.542;13.232;2023-03-01T21:57:24;97480.84;;;8.15;48.00
62072;BME280;48031;48.542;13.232;2023-03-01T22:01:27;97485.44;;;8.26;48.68
62072;BME280;48031;48.542;13.232;2023-03-01T22:05:29;97476.28;;;8.27;47.93
62072;BME280;48031;48.542;13.232;2023-03-01T22:09:31;97463.13;;;8.43;47.91
62072;BME280;48031;48.542;13.232;2023-03-01T22:13:35;97456.44;;;8.45;47.33
62072;BME280;48031;48.542;13.232;2023-03-01T22:17:37;97456.09;;;8.30;47.84
62072;BME280;48031;48.542;13.232;2023-03-01T22:21:40;97451.84;;;8.57;47.66
62072;BME280;48031;48.542;13.232;2023-03-01T22:25:43;97458.66;;;8.02;49.05
62072;BME280;48031;48.542;13.232;2023-03-01T22:29:45;97451.00;;;8.10;48.54
62072;BME280;48031;48.542;13.232;2023-03-01T22:33:48;97449.84;;;8.18;48.70
62072;BME280;48031;48.542;13.232;2023-03-01T22:37:50;97442.78;;;8.05;48.72
62072;BME280;48031;48.542;13.232;2023-03-01T22:41:52;97442.19;;;8.26;48.31
62072;BME280;48031;48.542;13.232;2023-03-01T22:45:54;97434.91;;;8.27;48.29
62072;BME280;48031;48.542;13.232;2023-03-01T22:49:56;97442.19;;;8.15;48.11
62072;BME280;48031;48.542;13.232;2023-03-01T22:54:00;97444.78;;;8.21;48.56
62072;BME280;48031;48.542;13.232;2023-03-01T22:58:01;97452.16;;;8.26;48.20
62072;BME280;48031;48.542;13.232;2023-03-01T23:02:03;97442.19;;;7.80;49.25
62072;BME280;48031;48.542;13.232;2023-03-01T23:06:05;97445.69;;;7.92;48.77